Time;durP1;ratioP1;P1;durP2;ratioP2;P2;SDS_P1;SDS_P2;PMS_P1;PMS_P2;Temp;Humidity;BMP_temperature;BMP_pressure;BME280_temperature;BME280_humidity;BME280_pressure;Samples;Min_cycle;Max_cycle;Signal;HPM_P1;HPM_P2
2022/03/15 00:01:36;;;;;;;33.03;21.02;;;;;;;7.69;81.83;102747.56;7390557;19;20317;-63
2022/03/15 00:04:05;;;;;;;41.42;21.75;;;;;;;7.71;81.70;102740.56;7390255;19;20010;-62
2022/03/15 00:06:38;;;;;;;35.92;22.20;;;;;;;7.75;81.16;102743.22;7390661;19;20025;-63
2022/03/15 00:09:07;;;;;;;36.83;21.67;;;;;;;7.66;81.30;102742.34;7389816;19;20115;-62
2022/03/15 00:11:40;;;;;;;41.13;22.27;;;;;;;7.68;81.59;102738.88;7390048;19;20023;-61
2022/03/15 00:14:14;;;;;;;38.97;21.45;;;;;;;7.54;82.10;102736.25;7394120;19;20018;-62
2022/03/15 00:16:43;;;;;;;35.17;20.73;;;;;;;7.38;83.23;102732.78;7390192;19;20085;-60
2022/03/15 00:19:12;;;;;;;36.28;21.95;;;;;;;7.56;82.02;102741.47;7388526;19;20040;-62
2022/03/15 00:21:44;;;;;;;38.85;22.15;;;;;;;7.63;81.75;102731.03;7389179;19;20144;-62
2022/03/15 00:24:13;;;;;;;38.35;22.65;;;;;;;7.65;81.63;102732.75;7389113;19;20010;-62
2022/03/15 00:26:42;;;;;;;37.10;21.75;;;;;;;7.69;81.43;102737.13;7388339;19;20017;-62
2022/03/15 00:29:16;;;;;;;38.08;21.23;;;;;;;7.54;82.21;102732.78;7391859;19;20082;-61
2022/03/15 00:31:46;;;;;;;40.30;21.35;;;;;;;7.40;83.30;102723.22;7390307;19;20029;-60
2022/03/15 00:34:15;;;;;;;39.05;23.23;;;;;;;7.39;83.61;102716.28;7391377;19;20025;-60
2022/03/15 00:36:48;;;;;;;36.25;22.38;;;;;;;7.33;83.93;102721.47;7391283;19;20039;-60
2022/03/15 00:39:18;;;;;;;42.28;26.35;;;;;;;7.40;83.97;102709.31;7390742;19;20018;-59
2022/03/15 00:41:47;;;;;;;38.85;23.00;;;;;;;7.28;84.46;102710.19;7392798;19;20331;-60
2022/03/15 00:44:16;;;;;;;36.83;23.17;;;;;;;7.24;85.05;102711.91;7391793;19;20010;-62
2022/03/15 00:46:46;;;;;;;37.60;22.98;;;;;;;7.23;84.59;102714.53;7389550;19;20365;-61
2022/03/15 00:49:15;;;;;;;39.25;21.73;;;;;;;7.26;84.53;102718.03;7395710;19;20007;-62
2022/03/15 00:51:47;;;;;;;34.97;21.67;;;;;;;7.31;83.99;102720.63;7398588;19;20015;-61
2022/03/15 00:54:16;;;;;;;39.93;21.13;;;;;;;7.31;84.44;102711.91;7397476;19;20317;-61
2022/03/15 00:56:45;;;;;;;37.65;21.75;;;;;;;7.19;84.76;102718.88;7396574;19;20428;-60
2022/03/15 00:59:15;;;;;;;40.03;21.80;;;;;;;7.19;84.27;102718.88;7398145;19;20030;-60
2022/03/15 01:01:44;;;;;;;40.58;21.95;;;;;;;7.14;84.67;102718.00;7395455;19;20025;-60
2022/03/15 01:04:13;;;;;;;35.08;20.67;;;;;;;7.09;85.04;102709.31;7399369;19;20125;-60
2022/03/15 01:06:42;;;;;;;36.78;22.25;;;;;;;7.15;84.91;102706.72;7397974;19;20036;-60
2022/03/15 01:09:14;;;;;;;36.90;21.58;;;;;;;7.12;85.26;102711.03;7397943;19;20048;-60
2022/03/15 01:11:43;;;;;;;33.72;21.33;;;;;;;7.12;84.90;102716.25;7397330;19;20113;-59
2022/03/15 01:14:12;;;;;;;38.80;21.58;;;;;;;7.06;84.73;102704.09;7402475;19;20026;-60
2022/03/15 01:16:41;;;;;;;41.33;21.42;;;;;;;7.10;85.01;102708.44;7397651;19;20078;-60
2022/03/15 01:19:10;;;;;;;38.03;21.48;;;;;;;6.96;85.42;102704.94;7397244;19;20492;-61
2022/03/15 01:21:40;;;;;;;35.78;21.58;;;;;;;6.94;86.08;102702.34;7393362;19;20018;-61
2022/03/15 01:24:10;;;;;;;38.25;22.27;;;;;;;7.08;84.95;102703.22;7396443;19;20014;-62
2022/03/15 01:26:42;;;;;;;41.05;23.27;;;;;;;7.07;84.78;102693.66;7396013;19;20022;-61
2022/03/15 01:29:11;;;;;;;33.58;21.13;;;;;;;7.05;84.99;102702.34;7394144;19;20104;-61
2022/03/15 01:31:40;;;;;;;39.22;21.25;;;;;;;7.00;85.22;102696.28;7393950;19;20025;-62
2022/03/15 01:34:09;;;;;;;43.10;22.88;;;;;;;6.97;85.12;102693.66;7394460;19;20371;-64
2022/03/15 01:36:38;;;;;;;38.60;21.10;;;;;;;6.95;85.26;102692.78;7395176;19;20638;-62
2022/03/15 01:39:09;;;;;;;42.65;23.38;;;;;;;6.93;85.93;102675.44;7394993;19;20368;-61
2022/03/15 01:41:40;;;;;;;41.80;23.05;;;;;;;7.05;85.33;102677.16;7394945;19;20400;-61
2022/03/15 01:44:20;;;;;;;39.13;22.35;;;;;;;7.05;85.30;102678.88;7395727;19;20034;-61
2022/03/15 01:46:50;;;;;;;36.97;22.88;;;;;;;7.01;85.51;102675.41;7396321;19;20029;-62
2022/03/15 01:49:23;;;;;;;41.08;23.02;;;;;;;6.97;85.71;102671.06;7394689;19;20014;-61
2022/03/15 01:51:53;;;;;;;37.75;22.58;;;;;;;6.98;85.83;102665.00;7396673;19;20011;-60
2022/03/15 01:54:22;;;;;;;39.85;22.13;;;;;;;7.01;85.26;102672.81;7396532;19;20475;-60
2022/03/15 01:56:51;;;;;;;40.42;22.10;;;;;;;6.97;85.74;102665.84;7395916;19;20015;-61
2022/03/15 01:59:23;;;;;;;46.97;24.45;;;;;;;6.89;85.77;102672.78;7391838;19;20113;-60
2022/03/15 02:01:53;;;;;;;35.95;22.48;;;;;;;6.96;86.25;102665.84;7393385;19;20014;-62
2022/03/15 02:04:21;;;;;;;44.55;24.02;;;;;;;7.05;85.40;102671.94;7397691;19;20011;-61
2022/03/15 02:06:51;;;;;;;42.00;23.15;;;;;;;7.16;85.33;102669.31;7397132;19;20025;-59
2022/03/15 02:09:20;;;;;;;42.40;22.92;;;;;;;7.20;84.75;102672.81;7398910;19;20019;-60
2022/03/15 02:11:49;;;;;;;40.28;23.08;;;;;;;7.28;84.62;102668.47;7399269;19;20038;-61
2022/03/15 02:14:19;;;;;;;39.47;22.77;;;;;;;7.14;84.94;102665.88;7403143;19;20068;-60
2022/03/15 02:16:50;;;;;;;43.83;24.00;;;;;;;7.08;85.54;102663.28;7396957;19;20022;-59
2022/03/15 02:19:19;;;;;;;41.85;23.83;;;;;;;7.17;85.06;102660.66;7396122;19;20123;-61
2022/03/15 02:21:51;;;;;;;39.58;22.60;;;;;;;7.19;85.38;102652.81;7392317;19;20380;-61
2022/03/15 02:24:20;;;;;;;41.00;22.27;;;;;;;7.18;84.88;102649.34;7397003;19;20026;-61
2022/03/15 02:26:50;;;;;;;36.35;22.85;;;;;;;7.20;85.29;102647.59;7396670;19;20018;-61
2022/03/15 02:29:18;;;;;;;40.92;23.45;;;;;;;7.17;85.35;102647.59;7395822;19;20010;-62
2022/03/15 02:31:47;;;;;;;41.30;23.00;;;;;;;7.15;85.12;102641.53;7395312;19;20371;-63
2022/03/15 02:34:17;;;;;;;40.42;23.30;;;;;;;7.08;85.42;102643.28;7394477;19;20017;-63
2022/03/15 02:36:46;;;;;;;45.00;24.77;;;;;;;7.26;85.19;102626.75;7393536;19;20078;-63
2022/03/15 02:39:17;;;;;;;43.55;25.65;;;;;;;7.25;85.05;102634.59;7393708;19;20038;-63
2022/03/15 02:41:46;;;;;;;44.20;25.52;;;;;;;7.18;85.09;102641.53;7391254;19;20035;-62
2022/03/15 02:44:15;;;;;;;43.22;25.83;;;;;;;7.24;85.36;102636.31;7393225;19;20011;-63
2022/03/15 02:46:44;;;;;;;45.90;25.20;;;;;;;7.17;85.41;102624.16;7392957;19;20051;-63
2022/03/15 02:49:13;;;;;;;45.72;24.63;;;;;;;7.05;85.63;102632.84;7392660;19;20022;-60
2022/03/15 02:51:42;;;;;;;39.72;24.60;;;;;;;7.07;85.79;102625.03;7393014;19;20041;-60
2022/03/15 02:54:13;;;;;;;48.53;26.10;;;;;;;7.00;86.20;102633.72;7392339;19;20015;-58
2022/03/15 02:56:46;;;;;;;43.88;26.38;;;;;;;6.98;85.91;102623.28;7392220;19;20021;-61
2022/03/15 02:59:17;;;;;;;48.13;26.60;;;;;;;6.98;86.17;102625.91;7391626;19;20494;-60
2022/03/15 03:01:47;;;;;;;46.03;27.17;;;;;;;7.04;86.18;102617.22;7390851;19;20035;-62
2022/03/15 03:04:19;;;;;;;45.10;27.88;;;;;;;7.02;85.88;102619.81;7392587;19;20415;-62
2022/03/15 03:06:48;;;;;;;44.78;26.95;;;;;;;7.07;85.77;102614.59;7390044;19;20377;-62
2022/03/15 03:09:17;;;;;;;46.13;28.98;;;;;;;7.10;86.23;102615.44;7391615;19;20596;-60
2022/03/15 03:11:48;;;;;;;45.75;27.48;;;;;;;7.20;85.37;102613.72;7389706;19;20014;-61
2022/03/15 03:14:21;;;;;;;47.45;29.10;;;;;;;7.15;85.59;102611.97;7393613;19;20014;-61
2022/03/15 03:16:50;;;;;;;;;;;;;;;7.13;85.22;102608.50;7392339;19;20025;-59
2022/03/15 03:19:19;;;;;;;48.35;28.73;;;;;;;7.04;85.63;102609.41;7391603;19;19939;-62
2022/03/15 03:21:49;;;;;;;46.97;28.25;;;;;;;7.06;85.64;102607.63;7390549;19;20044;-60
2022/03/15 03:24:21;;;;;;;43.75;28.08;;;;;;;7.03;85.75;102602.44;7392873;19;20014;-61
2022/03/15 03:26:53;;;;;;;46.20;28.88;;;;;;;7.03;86.05;102603.28;7392081;19;20019;-61
2022/03/15 03:29:22;;;;;;;49.97;30.30;;;;;;;7.10;85.43;102601.56;7391406;19;20408;-61
2022/03/15 03:31:51;;;;;;;51.28;29.92;;;;;;;7.10;85.16;102598.94;7392387;19;20340;-61
2022/03/15 03:34:19;;;;;;;51.58;28.92;;;;;;;7.15;84.78;102604.16;7392574;19;20483;-62
2022/03/15 03:36:48;;;;;;;46.67;28.85;;;;;;;7.20;84.83;102600.66;7391952;19;20017;-61
2022/03/15 03:39:17;;;;;;;44.72;28.65;;;;;;;7.15;85.07;102602.44;7390762;19;20021;-61
2022/03/15 03:41:46;;;;;;;45.88;28.13;;;;;;;7.15;84.78;102602.44;7391453;19;20014;-60
2022/03/15 03:44:18;;;;;;;44.03;27.90;;;;;;;7.11;84.73;102600.69;7391209;19;20025;-60
2022/03/15 03:46:46;;;;;;;44.38;28.00;;;;;;;7.05;84.97;102587.66;7391483;19;20007;-60
2022/03/15 03:49:15;;;;;;;45.88;27.48;;;;;;;7.09;84.49;102590.28;7391618;19;20731;-59
2022/03/15 03:51:45;;;;;;;45.45;27.63;;;;;;;7.08;84.88;102593.75;7390343;19;20517;-62
2022/03/15 03:54:14;;;;;;;47.45;27.27;;;;;;;7.04;84.53;102597.22;7390351;19;20018;-59
2022/03/15 03:56:43;;;;;;;45.58;28.05;;;;;;;6.99;84.39;102582.44;7390091;19;20060;-62
2022/03/15 03:59:13;;;;;;;40.60;25.73;;;;;;;6.92;84.88;102587.69;7388951;19;20018;-61
2022/03/15 04:01:47;;;;;;;43.88;26.42;;;;;;;7.03;84.47;102597.22;7389526;19;20510;-62
2022/03/15 04:04:16;;;;;;;43.03;26.15;;;;;;;6.96;84.77;102605.91;7389947;19;20014;-61
2022/03/15 04:06:46;;;;;;;41.50;27.48;;;;;;;7.00;85.24;102608.50;7389669;19;20003;-62
2022/03/15 04:09:14;;;;;;;43.70;26.85;;;;;;;7.07;84.81;102604.19;7389732;19;20018;-62
2022/03/15 04:11:44;;;;;;;45.00;26.45;;;;;;;7.03;84.17;102605.91;7389923;19;20011;-62
2022/03/15 04:14:13;;;;;;;44.20;26.40;;;;;;;6.96;84.59;102601.56;7393274;19;20023;-62
2022/03/15 04:16:42;;;;;;;41.22;25.98;;;;;;;7.04;84.49;102588.53;7389165;19;20029;-62
2022/03/15 04:19:14;;;;;;;38.80;25.33;;;;;;;6.95;83.89;102606.78;7389226;19;20014;-62
2022/03/15 04:21:42;;;;;;;41.33;24.83;;;;;;;6.86;83.97;102610.25;7387949;19;20018;-60
2022/03/15 04:24:12;;;;;;;42.70;26.30;;;;;;;6.84;84.70;102598.97;7387637;19;20011;-63
2022/03/15 04:26:41;;;;;;;38.67;24.85;;;;;;;6.88;83.96;102605.94;7389204;19;20015;-62
2022/03/15 04:29:10;;;;;;;42.90;25.45;;;;;;;6.87;84.17;102602.44;7389004;19;20014;-63
2022/03/15 04:31:39;;;;;;;40.63;25.48;;;;;;;6.88;83.55;102601.56;7389786;19;20346;-62
2022/03/15 04:34:08;;;;;;;38.53;23.50;;;;;;;6.83;83.95;102608.50;7389180;19;20015;-62
2022/03/15 04:36:40;;;;;;;40.35;24.10;;;;;;;6.80;83.48;102611.13;7388040;19;20108;-62
2022/03/15 04:39:09;;;;;;;38.25;24.13;;;;;;;6.89;83.64;102611.13;7388344;19;20451;-63
2022/03/15 04:41:38;;;;;;;38.67;25.02;;;;;;;6.89;83.40;102607.63;7388910;19;20110;-61
2022/03/15 04:44:08;;;;;;;40.75;24.25;;;;;;;6.95;83.25;102602.44;7389747;19;20522;-62
2022/03/15 04:46:37;;;;;;;37.33;23.92;;;;;;;7.04;82.88;102607.66;7388754;19;20043;-61
2022/03/15 04:49:06;;;;;;;38.65;24.02;;;;;;;7.17;82.35;102592.00;7387884;19;20029;-60
2022/03/15 04:51:35;;;;;;;37.42;24.00;;;;;;;6.96;82.58;102596.34;7388740;19;20404;-60
2022/03/15 04:54:06;;;;;;;36.33;23.63;;;;;;;6.90;82.80;102588.53;7388227;19;20018;-62
2022/03/15 04:56:38;;;;;;;38.85;23.63;;;;;;;6.81;83.20;102589.41;7388332;19;20019;-62
2022/03/15 04:59:07;;;;;;;40.13;23.67;;;;;;;6.80;82.73;102584.22;7388064;19;20495;-62
2022/03/15 05:01:36;;;;;;;37.10;22.90;;;;;;;6.85;82.98;102585.94;7388636;19;20027;-62
2022/03/15 05:04:05;;;;;;;35.45;24.02;;;;;;;6.86;82.94;102584.19;7388537;19;20351;-62
2022/03/15 05:06:34;;;;;;;35.20;23.42;;;;;;;6.87;82.38;102576.38;7388666;19;20025;-62
2022/03/15 05:09:03;;;;;;;37.70;22.83;;;;;;;6.81;82.05;102581.59;7387997;19;20022;-62
2022/03/15 05:11:32;;;;;;;36.55;24.42;;;;;;;6.89;83.03;102582.47;7388375;19;20014;-62
2022/03/15 05:14:04;;;;;;;;;;;;;;;6.92;82.17;102582.47;7392571;19;20010;-62
2022/03/15 05:16:33;;;;;;;34.97;23.10;;;;;;;6.95;81.93;102580.72;7388405;19;19919;-62
2022/03/15 05:19:02;;;;;;;32.92;22.77;;;;;;;7.04;81.87;102578.13;7387861;19;20046;-62
2022/03/15 05:21:31;;;;;;;33.40;22.73;;;;;;;6.97;81.86;102579.00;7387526;19;20374;-62
2022/03/15 05:24:00;;;;;;;38.58;22.67;;;;;;;6.95;81.67;102578.09;7388537;19;20538;-61
2022/03/15 05:26:29;;;;;;;37.25;23.98;;;;;;;6.84;82.20;102578.13;7389505;19;20017;-63
2022/03/15 05:29:01;;;;;;;38.72;23.38;;;;;;;6.79;82.34;102574.66;7389943;19;20112;-62
2022/03/15 05:31:31;;;;;;;37.30;23.40;;;;;;;6.78;82.50;102580.72;7390416;19;20015;-63
2022/03/15 05:34:00;;;;;;;37.90;22.80;;;;;;;6.72;82.89;102573.75;7391238;19;20010;-63
2022/03/15 05:36:28;;;;;;;38.97;23.83;;;;;;;6.78;82.79;102571.19;7396117;19;20015;-63
2022/03/15 05:38:57;;;;;;;38.17;23.83;;;;;;;6.72;82.76;102576.38;7396155;19;20026;-62
2022/03/15 05:41:26;;;;;;;36.00;23.50;;;;;;;6.68;82.71;102572.91;7394931;19;20018;-62
2022/03/15 05:43:55;;;;;;;39.35;25.02;;;;;;;6.70;82.62;102571.16;7395620;19;20030;-62
2022/03/15 05:46:27;;;;;;;32.83;22.67;;;;;;;6.84;82.11;102572.91;7396359;19;20014;-63
2022/03/15 05:48:56;;;;;;;33.00;22.63;;;;;;;6.78;82.18;102560.75;7394178;19;20010;-61
2022/03/15 05:51:25;;;;;;;35.10;22.20;;;;;;;6.76;81.75;102565.09;7394958;19;20018;-63
2022/03/15 05:53:54;;;;;;;37.72;24.17;;;;;;;6.83;82.02;102566.81;7395267;19;20018;-62
2022/03/15 05:56:23;;;;;;;35.15;23.65;;;;;;;6.84;82.12;102571.16;7395178;19;20022;-62
2022/03/15 05:58:52;;;;;;;35.50;23.60;;;;;;;6.82;81.78;102569.44;7394300;19;20022;-62
2022/03/15 06:01:21;;;;;;;39.75;23.85;;;;;;;6.81;82.26;102565.09;7421825;19;20025;-63
2022/03/15 06:03:53;;;;;;;39.55;24.50;;;;;;;6.93;82.24;102567.69;7396802;19;20010;-62
2022/03/15 06:06:24;;;;;;;40.90;24.48;;;;;;;6.86;81.86;102561.63;7394753;19;20007;-63
2022/03/15 06:08:53;;;;;;;37.50;24.35;;;;;;;6.84;82.09;102557.28;7392743;19;20122;-66
2022/03/15 06:11:22;;;;;;;39.75;25.83;;;;;;;6.72;82.46;102560.75;7399184;19;20018;-66
2022/03/15 06:13:51;;;;;;;39.75;25.85;;;;;;;6.72;82.90;102558.13;7401845;19;20014;-66
2022/03/15 06:16:20;;;;;;;44.97;26.98;;;;;;;6.65;82.60;102556.41;7398508;19;20014;-66
2022/03/15 06:18:50;;;;;;;39.78;25.88;;;;;;;6.71;82.54;102552.06;7393851;19;20010;-66
2022/03/15 06:21:22;;;;;;;39.95;27.00;;;;;;;6.67;82.56;102558.16;7394098;19;20006;-66
2022/03/15 06:23:51;;;;;;;43.10;27.27;;;;;;;6.64;82.71;102557.28;7396571;19;20029;-66
2022/03/15 06:26:21;;;;;;;39.58;25.27;;;;;;;6.55;83.28;102548.59;7397045;19;20070;-64
2022/03/15 06:28:50;;;;;;;39.30;26.00;;;;;;;6.71;83.04;102552.06;7393031;19;20022;-66
2022/03/15 06:31:20;;;;;;;39.47;26.13;;;;;;;6.70;82.99;102554.69;7393962;19;20070;-67
2022/03/15 06:33:49;;;;;;;40.88;26.50;;;;;;;6.55;82.88;102548.59;7396177;19;20011;-65
2022/03/15 06:36:17;;;;;;;40.05;27.13;;;;;;;6.58;82.99;102545.13;7395813;19;20022;-66
2022/03/15 06:38:49;;;;;;;40.42;26.40;;;;;;;6.61;83.49;102552.09;7394581;19;20018;-65
2022/03/15 06:41:18;;;;;;;38.95;25.55;;;;;;;6.58;83.33;102546.00;7393841;19;20017;-65
2022/03/15 06:43:47;;;;;;;36.58;26.25;;;;;;;6.61;83.20;102539.91;7394347;19;20021;-66
2022/03/15 06:46:17;;;;;;;41.70;26.27;;;;;;;6.64;82.98;102537.31;7394824;19;20029;-66
2022/03/15 06:48:46;;;;;;;36.20;25.63;;;;;;;6.62;83.33;102539.06;7396229;19;20018;-66
2022/03/15 06:51:15;;;;;;;37.05;26.52;;;;;;;6.65;82.86;102533.84;7397543;19;20018;-67
2022/03/15 06:53:49;;;;;;;38.15;24.23;;;;;;;6.76;82.62;102531.22;7398719;19;20011;-64
2022/03/15 06:56:18;;;;;;;40.08;24.70;;;;;;;6.85;81.97;102530.34;7395150;19;20015;-66
2022/03/15 06:58:48;;;;;;;43.60;26.50;;;;;;;6.82;82.16;102531.22;7392603;19;20383;-67
2022/03/15 07:01:17;;;;;;;36.30;24.08;;;;;;;6.82;82.36;102527.75;7394827;19;20029;-66
2022/03/15 07:03:46;;;;;;;39.35;25.95;;;;;;;6.73;82.31;102516.47;7393344;19;20014;-66
2022/03/15 07:06:17;;;;;;;38.17;25.65;;;;;;;6.77;82.16;102521.69;7396297;19;20010;-65
2022/03/15 07:08:48;;;;;;;38.80;25.33;;;;;;;6.78;81.93;102523.41;7393522;19;20022;-66
2022/03/15 07:11:17;;;;;;;43.15;25.27;;;;;;;6.72;82.21;102519.94;7394868;19;20019;-66
2022/03/15 07:13:46;;;;;;;42.08;25.63;;;;;;;6.73;82.12;102513.88;7397369;19;20003;-67
2022/03/15 07:16:15;;;;;;;38.05;23.77;;;;;;;6.74;81.91;102525.16;7396055;19;20029;-66
2022/03/15 07:18:44;;;;;;;38.65;25.05;;;;;;;6.78;82.23;102526.00;7393755;19;20026;-66
2022/03/15 07:21:13;;;;;;;39.72;24.75;;;;;;;6.79;82.34;102520.81;7393348;19;20014;-65
2022/03/15 07:23:43;;;;;;;36.10;24.92;;;;;;;6.74;82.19;102515.59;7393145;19;20034;-66
2022/03/15 07:26:15;;;;;;;38.17;23.88;;;;;;;6.70;82.33;102520.81;7394481;19;20656;-68
2022/03/15 07:28:44;;;;;;;36.25;23.52;;;;;;;6.74;82.16;102517.34;7392354;19;20022;-67
2022/03/15 07:31:13;;;;;;;36.83;24.55;;;;;;;6.69;82.06;102519.06;7393321;19;20025;-66
2022/03/15 07:33:42;;;;;;;34.38;22.60;;;;;;;6.68;82.27;102515.59;7394776;19;20018;-68
2022/03/15 07:36:11;;;;;;;34.40;22.55;;;;;;;6.72;81.78;102517.34;7394795;19;20015;-66
2022/03/15 07:38:40;;;;;;;34.20;22.40;;;;;;;6.76;81.44;102520.78;7394677;19;20086;-66
2022/03/15 07:41:08;;;;;;;35.97;23.42;;;;;;;6.75;82.08;102519.09;7393930;19;20106;-66
2022/03/15 07:43:40;;;;;;;32.90;22.15;;;;;;;6.80;81.56;102516.47;7393153;19;20014;-66
2022/03/15 07:46:09;;;;;;;32.53;21.63;;;;;;;6.81;81.67;102511.25;7392588;19;20045;-66
2022/03/15 07:48:38;;;;;;;32.50;21.73;;;;;;;6.89;81.19;102508.63;7393736;19;20062;-69
2022/03/15 07:51:07;;;;;;;34.58;21.15;;;;;;;6.92;81.30;102511.25;7393252;19;20014;-69
2022/03/15 07:53:36;;;;;;;31.83;21.02;;;;;;;6.86;80.50;102512.13;7393534;19;20021;-68
2022/03/15 07:56:05;;;;;;;35.28;22.17;;;;;;;6.87;81.00;102513.84;7393166;19;20026;-66
2022/03/15 07:58:34;;;;;;;30.50;20.88;;;;;;;6.95;81.04;102500.81;7392493;19;20098;-68
2022/03/15 08:01:06;;;;;;;33.95;21.95;;;;;;;7.04;80.67;102506.00;7392319;19;20010;-69
2022/03/15 08:03:35;;;;;;;32.30;21.10;;;;;;;7.03;80.39;102511.22;7392517;19;20481;-69
2022/03/15 08:06:04;;;;;;;31.98;19.92;;;;;;;7.10;79.70;102505.09;7393125;19;20010;-69
2022/03/15 08:08:34;;;;;;;28.63;19.58;;;;;;;6.99;79.89;102499.94;7372175;19;20011;-69
2022/03/15 08:11:06;;;;;;;32.00;20.42;;;;;;;7.06;80.31;102505.97;7406514;19;20363;-68
2022/03/15 08:13:36;;;;;;;30.83;19.63;;;;;;;7.08;79.70;102504.25;7411215;19;20027;-69
2022/03/15 08:16:08;;;;;;;27.75;18.05;;;;;;;7.09;79.51;102508.59;7411981;19;20028;-68
2022/03/15 08:18:37;;;;;;;;;;;;;;;7.13;79.57;102509.47;7411658;19;20018;-69
2022/03/15 08:21:06;;;;;;;30.17;18.88;;;;;;;7.17;78.85;102506.84;7409671;19;19918;-66
2022/03/15 08:23:35;;;;;;;28.80;18.80;;;;;;;7.14;78.85;102506.00;7405761;19;20015;-68
2022/03/15 08:26:04;;;;;;;28.48;18.20;;;;;;;7.19;79.17;102520.75;7404554;19;20022;-69
2022/03/15 08:28:33;;;;;;;31.23;18.52;;;;;;;7.21;79.14;102513.78;7398106;19;20010;-66
2022/03/15 08:31:02;;;;;;;27.38;17.60;;;;;;;7.16;78.69;102510.28;7397813;19;20353;-69
2022/03/15 08:33:33;;;;;;;27.25;18.23;;;;;;;7.18;78.47;102507.69;7393393;19;20011;-68
2022/03/15 08:36:02;;;;;;;25.15;17.98;;;;;;;7.24;78.32;102508.53;7393720;19;20022;-66
2022/03/15 08:38:31;;;;;;;26.95;16.88;;;;;;;7.31;78.52;102503.31;7391025;19;20185;-65
2022/03/15 08:41:01;;;;;;;26.92;17.20;;;;;;;7.37;78.04;102508.50;7390652;19;20007;-68
2022/03/15 08:43:31;;;;;;;26.63;17.50;;;;;;;7.40;77.69;102508.50;7390340;19;20030;-68
2022/03/15 08:46:00;;;;;;;23.80;15.73;;;;;;;7.40;77.82;102501.53;7393136;19;20349;-66
2022/03/15 08:48:29;;;;;;;28.15;17.10;;;;;;;7.51;78.03;102495.41;7391752;19;20385;-69
2022/03/15 08:51:01;;;;;;;26.58;16.85;;;;;;;7.59;77.55;102501.47;7394703;19;20022;-69
2022/03/15 08:53:31;;;;;;;23.30;16.05;;;;;;;7.65;77.59;102497.94;7393279;19;20383;-66
2022/03/15 08:56:00;;;;;;;27.08;16.48;;;;;;;7.63;76.58;102495.34;7391951;19;20026;-66
2022/03/15 08:58:29;;;;;;;25.65;17.05;;;;;;;7.62;77.33;102488.38;7391343;19;20021;-66
2022/03/15 09:00:59;;;;;;;25.38;16.80;;;;;;;7.62;76.70;102488.38;7391806;19;20386;-66
2022/03/15 09:03:27;;;;;;;26.35;16.30;;;;;;;7.72;76.83;102484.00;7391204;19;20033;-67
2022/03/15 09:05:56;;;;;;;24.90;17.10;;;;;;;7.68;76.62;102475.34;7391873;19;20408;-67
2022/03/15 09:08:28;;;;;;;29.05;18.13;;;;;;;7.69;75.84;102473.59;7391313;19;20345;-67
2022/03/15 09:10:57;;;;;;;25.80;16.70;;;;;;;7.72;76.71;102473.56;7398735;19;20014;-69
2022/03/15 09:13:26;;;;;;;27.75;16.55;;;;;;;7.72;76.61;102471.84;7401541;19;20025;-66
2022/03/15 09:15:55;;;;;;;27.58;17.52;;;;;;;7.70;76.08;102475.31;7397340;19;20029;-69
2022/03/15 09:18:27;;;;;;;26.50;16.70;;;;;;;7.72;76.51;102465.72;7399300;19;20019;-68
2022/03/15 09:20:56;;;;;;;23.58;15.52;;;;;;;7.78;76.57;102473.53;7398316;19;20112;-68
2022/03/15 09:23:28;;;;;;;27.77;16.75;;;;;;;7.90;75.95;102477.81;7398748;19;20018;-66
2022/03/15 09:25:57;;;;;;;25.90;16.63;;;;;;;7.84;76.35;102460.44;7399289;19;20030;-69
2022/03/15 09:28:26;;;;;;;25.90;16.10;;;;;;;7.87;75.70;102460.44;7398962;19;20018;-69
2022/03/15 09:30:55;;;;;;;25.77;16.73;;;;;;;7.89;75.69;102457.81;7400058;19;20014;-68
2022/03/15 09:33:24;;;;;;;22.23;16.10;;;;;;;7.95;76.08;102450.81;7398438;19;20018;-68
2022/03/15 09:35:54;;;;;;;26.90;15.68;;;;;;;8.03;75.52;102447.28;7399381;19;20074;-67
2022/03/15 09:38:23;;;;;;;25.27;15.65;;;;;;;8.12;75.51;102447.19;7398123;19;20368;-67
2022/03/15 09:40:56;;;;;;;23.35;14.57;;;;;;;8.11;74.92;102445.47;7397619;19;20021;-68
2022/03/15 09:43:25;;;;;;;;;;;;;;;8.12;74.54;102439.34;7398130;19;20115;-67
2022/03/15 09:45:55;;;;;;;24.45;14.93;;;;;;;8.27;74.21;102446.22;7399124;19;19991;-68
2022/03/15 09:48:25;;;;;;;23.67;14.65;;;;;;;8.32;74.58;102433.97;7399285;19;20353;-68
2022/03/15 09:50:54;;;;;;;26.20;15.88;;;;;;;8.38;74.17;102435.66;7395070;19;20018;-68
2022/03/15 09:53:23;;;;;;;22.58;15.02;;;;;;;8.28;73.93;102434.88;7397814;19;20019;-67
2022/03/15 09:55:54;;;;;;;25.75;15.32;;;;;;;8.32;74.17;102436.59;7403883;19;20119;-67
2022/03/15 09:58:24;;;;;;;22.85;14.35;;;;;;;8.45;74.08;102434.75;7401022;19;20014;-67
2022/03/15 10:00:55;;;;;;;23.38;14.80;;;;;;;8.59;74.06;102432.03;7398046;19;20018;-67
2022/03/15 10:03:25;;;;;;;22.95;14.15;;;;;;;8.60;73.38;102434.63;7396762;19;20124;-67
2022/03/15 10:05:54;;;;;;;23.23;14.52;;;;;;;8.62;73.39;102437.22;7397289;19;20021;-67
2022/03/15 10:08:23;;;;;;;20.45;13.93;;;;;;;8.42;73.49;102433.00;7397062;19;20017;-68
2022/03/15 10:10:56;;;;;;;23.58;15.27;;;;;;;8.46;73.54;102426.06;7401780;19;20021;-67
2022/03/15 10:13:25;;;;;;;39.30;17.85;;;;;;;8.65;73.34;102422.38;7397810;19;20011;-67
2022/03/15 10:15:56;;;;;;;29.45;16.02;;;;;;;8.78;73.05;102407.44;7398415;19;20070;-68
2022/03/15 10:18:25;;;;;;;24.52;14.70;;;;;;;8.77;72.61;102412.69;7395970;19;20018;-67
2022/03/15 10:20:55;;;;;;;25.58;14.77;;;;;;;8.79;72.44;102401.31;7395187;19;20018;-67
2022/03/15 10:23:29;;;;;;;26.75;14.65;;;;;;;8.66;72.60;102391.88;7395293;19;20014;-67
2022/03/15 10:26:04;;;;;;;23.55;14.13;;;;;;;8.65;73.07;102390.13;7397954;19;20014;-67
2022/03/15 10:28:36;;;;;;;28.75;13.88;;;;;;;8.70;73.07;102384.84;7396444;19;20082;-67
2022/03/15 10:31:09;;;;;;;24.27;13.23;;;;;;;8.87;72.52;102396.00;7397513;19;20048;-66
2022/03/15 10:33:42;;;;;;;20.38;12.50;;;;;;;8.87;71.20;102397.75;7398111;19;20306;-66
2022/03/15 10:36:18;;;;;;;26.00;12.90;;;;;;;8.82;71.40;102382.97;7398293;19;20049;-67
2022/03/15 10:38:48;;;;;;;20.35;12.60;;;;;;;8.89;71.69;102382.91;7395815;19;20015;-68
2022/03/15 10:41:21;;;;;;;21.80;12.93;;;;;;;8.91;71.46;102374.19;7396357;19;20006;-68
2022/03/15 10:43:53;;;;;;;20.55;12.98;;;;;;;8.97;71.18;102370.63;7398579;19;20427;-66
2022/03/15 10:46:25;;;;;;;19.23;12.85;;;;;;;9.00;71.46;102370.59;7403734;19;20055;-66
2022/03/15 10:48:55;;;;;;;18.43;13.07;;;;;;;9.02;71.80;102370.56;7399513;19;20336;-66
2022/03/15 10:51:24;;;;;;;21.13;12.82;;;;;;;9.09;71.69;102369.59;7401722;19;20019;-66
2022/03/15 10:54:01;;;;;;;23.45;13.25;;;;;;;9.11;71.45;102375.66;7410830;19;20500;-66
2022/03/15 10:56:34;;;;;;;21.67;13.52;;;;;;;9.12;71.96;102375.63;7400307;19;20010;-67
2022/03/15 10:59:05;;;;;;;23.23;13.75;;;;;;;9.17;71.78;102373.84;7397715;19;20021;-66
2022/03/15 11:01:40;;;;;;;25.58;14.55;;;;;;;9.28;72.08;102368.44;7399298;19;20018;-66
2022/03/15 11:04:12;;;;;;;20.15;14.05;;;;;;;9.28;72.25;102370.19;7391339;19;20039;-66
2022/03/15 11:06:44;;;;;;;19.30;13.63;;;;;;;9.34;71.87;102362.25;7396291;19;20027;-68
2022/03/15 11:09:21;;;;;;;19.13;12.93;;;;;;;9.29;72.02;102362.34;7395023;19;20396;-67
2022/03/15 11:11:58;;;;;;;20.25;13.80;;;;;;;9.33;72.28;102365.78;7399207;19;20030;-67
2022/03/15 11:14:39;;;;;;;18.58;12.45;;;;;;;9.32;71.74;102366.66;7396144;19;20074;-65
2022/03/15 11:17:11;;;;;;;26.13;13.35;;;;;;;9.40;72.00;102363.94;7396293;19;20015;-68
2022/03/15 11:19:45;;;;;;;18.48;12.63;;;;;;;9.39;71.59;102363.06;7394000;19;20328;-66
2022/03/15 11:22:16;;;;;;;18.60;12.73;;;;;;;9.41;71.53;102363.91;7393374;19;20017;-66
2022/03/15 11:24:46;;;;;;;20.73;12.18;;;;;;;9.40;70.35;102363.94;7394018;19;20014;-66
2022/03/15 11:27:21;;;;;;;22.57;12.87;;;;;;;9.45;70.79;102360.34;7392884;19;20025;-66
2022/03/15 11:29:52;;;;;;;20.48;12.48;;;;;;;9.53;69.64;102344.56;7392746;19;20023;-66
2022/03/15 11:32:21;;;;;;;18.58;11.65;;;;;;;9.55;70.03;102350.63;7394299;19;20426;-67